createdAt,value
2022-10-07T00:02:31.790Z,7.00
2022-10-07T00:07:35.475Z,9.80
2022-10-07T00:12:39.303Z,6.70
2022-10-07T00:17:44.168Z,7.20
2022-10-07T00:22:47.777Z,8.20
2022-10-07T00:27:51.200Z,7.60
2022-10-07T00:32:54.722Z,8.90
2022-10-07T00:37:59.570Z,7.30
2022-10-07T00:43:19.645Z,9.90
2022-10-07T00:48:26.881Z,6.60
2022-10-07T00:53:32.618Z,8.20
2022-10-07T00:58:38.113Z,9.10
2022-10-07T01:03:46.153Z,11.20
2022-10-07T01:08:53.087Z,18.00
2022-10-07T01:14:08.719Z,8.50
2022-10-07T01:19:49.726Z,6.80
2022-10-07T01:25:12.873Z,9.40
2022-10-07T01:30:17.079Z,8.10
2022-10-07T01:35:25.473Z,8.00
2022-10-07T01:40:34.728Z,7.70
2022-10-07T01:45:40.980Z,8.80
2022-10-07T01:50:45.010Z,9.30
2022-10-07T01:55:54.776Z,6.90
2022-10-07T02:01:32.320Z,13.70
2022-10-07T02:07:08.025Z,8.10
2022-10-07T02:12:33.447Z,6.40
2022-10-07T02:17:42.712Z,8.10
2022-10-07T02:22:48.501Z,8.30
2022-10-07T02:27:55.266Z,7.10
2022-10-07T02:33:04.212Z,7.20
2022-10-07T02:38:12.640Z,12.30
2022-10-07T02:43:29.772Z,6.30
2022-10-07T02:48:46.009Z,7.20
2022-10-07T02:53:52.886Z,11.50
2022-10-07T02:58:57.631Z,7.40
2022-10-07T03:04:01.719Z,5.80
2022-10-07T03:09:05.493Z,10.00
2022-10-07T03:14:10.549Z,8.00
2022-10-07T03:19:14.175Z,7.30
2022-10-07T03:24:28.644Z,7.40
2022-10-07T03:29:33.295Z,9.60
2022-10-07T03:34:37.833Z,7.80
2022-10-07T03:39:41.659Z,6.80
2022-10-07T03:44:46.624Z,5.50
2022-10-07T03:49:50.644Z,7.30
2022-10-07T03:54:59.537Z,5.90
2022-10-07T04:00:03.110Z,5.50
2022-10-07T04:05:07.961Z,6.40
2022-10-07T04:10:13.959Z,9.80
2022-10-07T04:15:18.275Z,5.80
2022-10-07T04:20:22.003Z,5.60
2022-10-07T04:25:34.639Z,7.80
2022-10-07T04:30:44.008Z,5.10
2022-10-07T04:35:50.473Z,8.60
2022-10-07T04:40:54.402Z,9.60
2022-10-07T04:46:06.416Z,6.90
2022-10-07T04:51:12.523Z,6.10
2022-10-07T04:56:19.905Z,8.60
2022-10-07T05:01:23.822Z,5.60
2022-10-07T05:06:27.772Z,8.30
2022-10-07T05:11:31.808Z,5.70
2022-10-07T05:16:42.630Z,7.50
2022-10-07T05:21:48.363Z,7.40
2022-10-07T05:26:52.492Z,7.30
2022-10-07T05:31:57.883Z,4.90
2022-10-07T05:37:04.957Z,8.70
2022-10-07T05:42:09.811Z,6.70
2022-10-07T05:47:19.264Z,6.20
2022-10-07T05:52:42.443Z,8.30
2022-10-07T05:57:49.948Z,6.80
2022-10-07T06:02:53.644Z,7.80
2022-10-07T06:07:57.089Z,8.00
2022-10-07T06:13:10.540Z,11.30
2022-10-07T06:18:18.459Z,13.90
2022-10-07T06:23:25.458Z,7.50
2022-10-07T06:28:40.542Z,6.10
2022-10-07T06:33:44.165Z,15.00
2022-10-07T06:38:50.919Z,15.60
2022-10-07T06:43:58.924Z,7.40
2022-10-07T06:49:04.559Z,11.50
2022-10-07T06:54:08.482Z,10.00
2022-10-07T06:59:12.717Z,11.40
2022-10-07T07:04:48.511Z,10.20
2022-10-07T07:09:52.210Z,9.80
2022-10-07T07:14:56.460Z,8.60
2022-10-07T07:20:00.475Z,8.60
2022-10-07T07:25:06.344Z,10.20
2022-10-07T07:30:10.687Z,7.90
2022-10-07T07:35:15.331Z,12.50
2022-10-07T07:40:19.776Z,7.40
2022-10-07T07:45:24.743Z,6.20
2022-10-07T07:50:29.568Z,6.70
2022-10-07T07:55:33.916Z,10.50
2022-10-07T08:00:37.950Z,8.20
2022-10-07T08:05:43.826Z,10.10
2022-10-07T08:10:51.792Z,9.10
2022-10-07T08:15:57.761Z,8.30
2022-10-07T08:21:05.437Z,6.50
2022-10-07T08:26:11.039Z,7.30
2022-10-07T08:31:20.665Z,5.60
2022-10-07T08:36:26.776Z,8.40
2022-10-07T08:41:40.807Z,14.70
2022-10-07T08:47:22.503Z,10.30
2022-10-07T08:52:39.628Z,4.60
2022-10-07T08:57:50.135Z,8.70
2022-10-07T09:03:09.593Z,7.70
2022-10-07T09:08:21.709Z,7.00
2022-10-07T09:13:30.878Z,9.70
2022-10-07T09:18:43.896Z,49.10
2022-10-07T09:23:55.692Z,10.40
2022-10-07T09:29:10.483Z,13.10
2022-10-07T09:34:30.076Z,15.20
2022-10-07T09:39:33.452Z,13.70
2022-10-07T09:44:40.389Z,13.30
2022-10-07T09:49:48.924Z,20.70
2022-10-07T09:54:54.984Z,12.10
2022-10-07T10:00:13.879Z,13.90
2022-10-07T10:05:36.431Z,16.80
2022-10-07T10:10:56.394Z,14.30
2022-10-07T10:16:04.061Z,17.80
2022-10-07T10:21:41.124Z,12.90
2022-10-07T10:27:16.676Z,10.80
2022-10-07T10:32:23.062Z,10.30
2022-10-07T10:37:43.882Z,11.70
2022-10-07T10:42:56.586Z,14.40
2022-10-07T10:48:18.755Z,18.00
2022-10-07T10:54:01.481Z,14.80
2022-10-07T10:59:23.409Z,10.40
2022-10-07T11:04:31.842Z,9.40
2022-10-07T11:10:19.631Z,10.60
2022-10-07T11:15:28.209Z,9.70
2022-10-07T11:20:35.623Z,12.00
2022-10-07T11:25:47.108Z,9.00
2022-10-07T11:31:24.747Z,8.40
2022-10-07T11:36:44.111Z,9.40
2022-10-07T11:41:53.729Z,13.60
2022-10-07T11:47:02.053Z,10.20
2022-10-07T11:52:18.508Z,7.20
2022-10-07T11:57:29.795Z,8.70
2022-10-07T12:02:40.735Z,11.10
2022-10-07T12:07:45.242Z,7.30
2022-10-07T12:12:55.166Z,7.40
2022-10-07T12:18:05.286Z,6.20
2022-10-07T12:23:25.485Z,5.80
2022-10-07T12:28:47.712Z,6.10
2022-10-07T12:34:04.756Z,9.60
2022-10-07T12:39:09.821Z,7.60
2022-10-07T12:44:39.427Z,8.90
2022-10-07T12:49:50.426Z,7.80
2022-10-07T12:54:58.163Z,7.40
2022-10-07T13:00:17.212Z,6.10
2022-10-07T13:05:45.837Z,7.30
2022-10-07T13:11:29.648Z,7.50
2022-10-07T13:17:01.311Z,8.00
2022-10-07T13:22:18.746Z,9.20
2022-10-07T13:27:28.668Z,8.00
2022-10-07T13:32:34.631Z,9.60
2022-10-07T13:37:38.657Z,4.80
2022-10-07T13:42:42.683Z,4.30
2022-10-07T13:47:49.959Z,6.40
2022-10-07T13:52:56.268Z,7.30
2022-10-07T13:58:04.460Z,7.40
2022-10-07T14:03:18.427Z,8.30
2022-10-07T14:08:31.771Z,6.40
2022-10-07T14:13:38.285Z,5.10
2022-10-07T14:18:47.418Z,6.90
2022-10-07T14:23:50.932Z,11.80
2022-10-07T14:28:55.172Z,10.70
2022-10-07T14:34:41.865Z,9.90
2022-10-07T14:40:29.182Z,11.60
2022-10-07T14:45:49.487Z,10.70
2022-10-07T14:51:00.125Z,13.70
2022-10-07T14:56:19.058Z,14.90
2022-10-07T15:01:49.533Z,13.40
2022-10-07T15:07:11.022Z,11.00
2022-10-07T15:12:31.969Z,11.30
2022-10-07T15:17:46.708Z,8.40
2022-10-07T15:23:17.024Z,12.20
2022-10-07T15:28:30.597Z,9.20
2022-10-07T15:33:36.366Z,11.00
2022-10-07T15:38:42.568Z,8.00
2022-10-07T15:43:46.275Z,8.00
2022-10-07T15:48:49.636Z,12.40
2022-10-07T15:53:56.420Z,11.90
2022-10-07T15:59:03.190Z,16.00
2022-10-07T16:04:14.011Z,35.60
2022-10-07T16:09:25.324Z,42.50
2022-10-07T16:14:35.757Z,33.70
2022-10-07T16:19:45.098Z,28.80
2022-10-07T16:24:53.342Z,27.60
2022-10-07T16:30:23.684Z,27.80
2022-10-07T16:35:37.208Z,30.80
2022-10-07T16:40:41.659Z,25.50
2022-10-07T16:45:45.479Z,26.20
2022-10-07T16:50:57.682Z,25.30
2022-10-07T16:56:07.689Z,20.80
2022-10-07T17:01:28.086Z,22.50
2022-10-07T17:06:33.234Z,27.40
2022-10-07T17:11:37.637Z,25.10
2022-10-07T17:16:43.898Z,23.60
2022-10-07T17:21:49.280Z,26.80
2022-10-07T17:26:57.001Z,25.30
2022-10-07T17:32:08.229Z,31.70
2022-10-07T17:37:21.475Z,24.70
2022-10-07T17:42:37.516Z,25.00
2022-10-07T17:47:45.721Z,26.90
2022-10-07T17:52:55.939Z,24.50
2022-10-07T17:58:05.033Z,19.00
2022-10-07T18:03:12.870Z,19.80
2022-10-07T18:08:33.056Z,18.70
2022-10-07T18:14:18.721Z,21.20
2022-10-07T18:19:51.963Z,21.40
2022-10-07T18:24:58.835Z,18.70
2022-10-07T18:30:14.395Z,18.40
2022-10-07T18:35:42.109Z,18.00
2022-10-07T18:41:04.779Z,17.20
2022-10-07T18:46:41.032Z,15.60
2022-10-07T18:51:58.789Z,16.60
2022-10-07T18:57:03.124Z,14.70
2022-10-07T19:03:01.807Z,16.80
2022-10-07T19:08:10.527Z,14.30
2022-10-07T19:13:49.409Z,13.10
2022-10-07T19:19:35.530Z,20.00
2022-10-07T19:25:00.857Z,14.80
2022-10-07T19:30:06.433Z,15.20
2022-10-07T19:35:10.850Z,17.20
2022-10-07T19:40:15.114Z,13.50
2022-10-07T19:45:18.524Z,16.70
2022-10-07T19:50:27.370Z,14.60
2022-10-07T19:55:35.922Z,13.50
2022-10-07T20:00:39.729Z,12.30
2022-10-07T20:05:45.092Z,12.20
2022-10-07T20:10:50.764Z,12.80
2022-10-07T20:16:09.043Z,12.80
2022-10-07T20:21:20.766Z,14.70
2022-10-07T20:26:32.516Z,17.90
2022-10-07T20:31:45.381Z,13.40
2022-10-07T20:36:58.104Z,11.80
2022-10-07T20:42:24.660Z,14.70
2022-10-07T20:47:35.433Z,9.40
2022-10-07T20:52:47.151Z,12.40
2022-10-07T20:58:00.223Z,10.50
2022-10-07T21:03:06.547Z,13.40
2022-10-07T21:08:14.901Z,13.00
2022-10-07T21:13:20.052Z,10.70
2022-10-07T21:18:26.846Z,11.00
2022-10-07T21:23:31.297Z,11.60
2022-10-07T21:28:38.237Z,11.50
2022-10-07T21:33:41.708Z,11.20
2022-10-07T21:38:47.635Z,15.20
2022-10-07T21:43:56.081Z,15.40
2022-10-07T21:48:59.950Z,10.20
2022-10-07T21:54:04.389Z,11.50
2022-10-07T21:59:07.912Z,12.10
2022-10-07T22:04:17.154Z,10.30
2022-10-07T22:09:21.623Z,9.50
2022-10-07T22:14:26.391Z,10.60
2022-10-07T22:19:30.997Z,14.60
2022-10-07T22:24:34.623Z,12.30
2022-10-07T22:29:38.763Z,11.10
2022-10-07T22:35:00.700Z,13.30
2022-10-07T22:40:05.137Z,10.30
2022-10-07T22:45:09.274Z,10.30
2022-10-07T22:50:14.031Z,8.60
2022-10-07T22:55:18.359Z,8.00
2022-10-07T23:00:23.151Z,9.10
2022-10-07T23:05:27.863Z,8.90
2022-10-07T23:10:35.272Z,10.80
2022-10-07T23:15:38.967Z,12.90
2022-10-07T23:20:42.515Z,11.20
2022-10-07T23:25:52.968Z,17.10
2022-10-07T23:30:57.788Z,7.60
2022-10-07T23:36:04.435Z,9.50
2022-10-07T23:41:08.773Z,9.40
2022-10-07T23:46:15.925Z,11.90
2022-10-07T23:51:29.216Z,21.10
2022-10-07T23:56:35.613Z,10.50
